Time;durP1;ratioP1;P1;durP2;ratioP2;P2;SDS_P1;SDS_P2;PMS_P1;PMS_P2;Temp;Humidity;BMP_temperature;BMP_pressure;BME280_temperature;BME280_humidity;BME280_pressure;Samples;Min_cycle;Max_cycle;Signal;HPM_P1;HPM_P2
2023/04/24 00:01:48;;;;;;;2.47;1.10;;;10.80;93.90;;;;;;4992724;28;20458;-64
2023/04/24 00:04:16;;;;;;;0.97;0.80;;;10.90;93.70;;;;;;4992003;28;20442;-64
2023/04/24 00:06:43;;;;;;;1.00;0.87;;;10.90;93.70;;;;;;4992811;28;20536;-64
2023/04/24 00:09:11;;;;;;;2.33;0.87;;;11.00;93.40;;;;;;4992088;28;20447;-64
2023/04/24 00:11:38;;;;;;;1.57;0.90;;;11.10;93.20;;;;;;5008326;28;20446;-65
2023/04/24 00:14:05;;;;;;;1.00;0.87;;;11.10;93.50;;;;;;5013613;28;20446;-64
2023/04/24 00:16:31;;;;;;;1.30;1.20;;;11.10;93.40;;;;;;5014620;28;20452;-65
2023/04/24 00:19:00;;;;;;;1.00;0.80;;;11.20;93.40;;;;;;5013629;28;21029;-65
2023/04/24 00:21:29;;;;;;;1.57;0.73;;;11.20;93.40;;;;;;5013988;28;20453;-65
2023/04/24 00:23:56;;;;;;;3.80;0.90;;;11.20;93.50;;;;;;5012631;28;20541;-65
2023/04/24 00:26:23;;;;;;;2.40;1.00;;;11.20;93.50;;;;;;5012168;28;20465;-64
2023/04/24 00:28:50;;;;;;;1.40;1.07;;;11.30;92.30;;;;;;4994887;28;20447;-64
2023/04/24 00:31:16;;;;;;;3.23;1.90;;;11.40;91.70;;;;;;4994314;28;20446;-64
2023/04/24 00:33:43;;;;;;;1.53;0.80;;;11.50;90.90;;;;;;4993269;28;20475;-64
2023/04/24 00:36:10;;;;;;;0.90;0.77;;;11.50;91.40;;;;;;4994600;28;20445;-63
2023/04/24 00:38:38;;;;;;;1.03;0.87;;;11.50;90.70;;;;;;4993873;28;20492;-64
2023/04/24 00:41:05;;;;;;;1.30;0.70;;;11.60;90.70;;;;;;4994267;28;20462;-64
2023/04/24 00:43:32;;;;;;;1.10;0.63;;;11.70;91.00;;;;;;4997861;28;20541;-64
2023/04/24 00:46:01;;;;;;;0.80;0.80;;;11.70;91.30;;;;;;5014453;28;20450;-64
2023/04/24 00:48:29;;;;;;;0.87;0.63;;;11.70;90.30;;;;;;5013772;28;20443;-64
2023/04/24 00:50:55;;;;;;;1.27;0.70;;;11.70;89.80;;;;;;5014026;28;20951;-64
2023/04/24 00:53:22;;;;;;;3.03;0.70;;;11.80;90.10;;;;;;5012708;28;20835;-65
2023/04/24 00:55:51;;;;;;;1.97;0.90;;;11.70;89.30;;;;;;5013294;28;20453;-65
2023/04/24 00:58:19;;;;;;;0.83;0.60;;;11.80;89.00;;;;;;5013643;28;20486;-65
2023/04/24 01:00:47;;;;;;;1.33;0.70;;;11.80;89.00;;;;;;5003676;28;21033;-64
2023/04/24 01:03:14;;;;;;;1.80;0.77;;;11.80;88.00;;;;;;4992676;28;20482;-64
2023/04/24 01:05:41;;;;;;;1.10;1.00;;;11.80;88.20;;;;;;4993494;28;20455;-65
2023/04/24 01:08:08;;;;;;;1.13;0.50;;;11.90;88.40;;;;;;4993751;28;20445;-65
2023/04/24 01:10:37;;;;;;;1.53;0.60;;;11.80;87.80;;;;;;4993620;28;20453;-65
2023/04/24 01:13:05;;;;;;;1.73;0.70;;;11.90;88.50;;;;;;4992451;28;20919;-65
2023/04/24 01:15:32;;;;;;;1.10;0.70;;;11.80;88.20;;;;;;4993820;28;20466;-65
2023/04/24 01:17:59;;;;;;;1.43;1.07;;;11.80;88.70;;;;;;4994122;28;20489;-65
2023/04/24 01:20:26;;;;;;;2.10;0.83;;;11.80;88.10;;;;;;4993371;28;20460;-64
2023/04/24 01:22:56;;;;;;;2.70;1.00;;;11.90;88.30;;;;;;4993088;28;20542;-64
2023/04/24 01:25:23;;;;;;;1.83;0.80;;;11.90;87.60;;;;;;4993237;28;20490;-64
2023/04/24 01:27:51;;;;;;;2.67;1.07;;;11.90;86.90;;;;;;4993495;28;20442;-65
2023/04/24 01:30:18;;;;;;;0.60;0.50;;;11.80;86.50;;;;;;4993736;28;20482;-64
2023/04/24 01:32:46;;;;;;;3.63;0.70;;;11.90;87.00;;;;;;4993344;28;20981;-64
2023/04/24 01:35:13;;;;;;;1.23;0.60;;;12.00;86.80;;;;;;4993472;28;20969;-65
2023/04/24 01:37:40;;;;;;;1.20;1.10;;;11.90;86.80;;;;;;4993754;28;20451;-64
2023/04/24 01:40:09;;;;;;;1.17;0.87;;;11.80;87.20;;;;;;4993917;28;20458;-64
2023/04/24 01:42:36;;;;;;;1.23;0.73;;;11.70;88.40;;;;;;4992877;28;20466;-64
2023/04/24 01:45:05;;;;;;;1.97;0.97;;;11.70;88.40;;;;;;4993391;28;20514;-64
2023/04/24 01:47:32;;;;;;;1.10;0.80;;;11.60;90.10;;;;;;4993237;28;20446;-65
2023/04/24 01:49:59;;;;;;;1.37;0.70;;;11.60;89.80;;;;;;4997535;28;20470;-65
2023/04/24 01:52:26;;;;;;;1.10;0.70;;;11.50;89.50;;;;;;5011239;28;20474;-65
2023/04/24 01:54:55;;;;;;;2.00;0.63;;;11.60;89.80;;;;;;5012114;28;20465;-64
2023/04/24 01:57:23;;;;;;;1.30;0.80;;;11.60;90.00;;;;;;4994719;28;20478;-64
2023/04/24 01:59:51;;;;;;;2.47;0.83;;;11.50;89.20;;;;;;4991999;28;20489;-64
2023/04/24 02:02:18;;;;;;;3.33;1.40;;;11.50;90.30;;;;;;4992435;28;20473;-63
2023/04/24 02:04:45;;;;;;;1.00;0.70;;;11.40;90.10;;;;;;4992224;28;20964;-65
2023/04/24 02:07:12;;;;;;;1.77;0.80;;;11.40;90.20;;;;;;4992179;28;20944;-64
2023/04/24 02:09:38;;;;;;;1.90;0.90;;;11.30;90.60;;;;;;4993088;28;20450;-65
2023/04/24 02:12:05;;;;;;;1.67;0.87;;;11.30;90.50;;;;;;5011943;28;20861;-64
2023/04/24 02:14:33;;;;;;;2.30;1.40;;;11.20;90.90;;;;;;5010646;28;20812;-64
2023/04/24 02:17:00;;;;;;;2.60;0.73;;;11.20;91.10;;;;;;5011847;28;20445;-64
2023/04/24 02:19:27;;;;;;;1.77;0.90;;;11.10;91.30;;;;;;5011923;28;20536;-64
2023/04/24 02:21:54;;;;;;;3.10;0.80;;;11.20;90.90;;;;;;5011844;28;21003;-64
2023/04/24 02:24:21;;;;;;;1.03;0.70;;;11.20;91.20;;;;;;5010937;28;20900;-66
2023/04/24 02:26:48;;;;;;;1.87;0.73;;;11.20;91.40;;;;;;5005019;28;20457;-65
2023/04/24 02:29:15;;;;;;;1.07;0.70;;;11.20;91.50;;;;;;4992020;28;20459;-65
2023/04/24 02:31:43;;;;;;;2.07;1.10;;;11.20;91.50;;;;;;4992077;28;20467;-65
2023/04/24 02:34:10;;;;;;;1.00;0.87;;;11.30;91.40;;;;;;4990460;28;20452;-65
2023/04/24 02:36:37;;;;;;;2.20;0.97;;;11.30;91.30;;;;;;4991720;28;20481;-65
2023/04/24 02:39:04;;;;;;;1.43;0.63;;;11.40;91.40;;;;;;4991996;28;20995;-64
2023/04/24 02:41:32;;;;;;;1.53;0.80;;;11.40;90.90;;;;;;4991905;28;21001;-65
2023/04/24 02:43:59;;;;;;;2.83;0.87;;;11.40;91.10;;;;;;4992086;28;20547;-65
2023/04/24 02:46:26;;;;;;;1.70;0.90;;;11.50;91.00;;;;;;4991913;28;20457;-65
2023/04/24 02:48:54;;;;;;;1.60;0.90;;;11.50;91.20;;;;;;4991636;28;20978;-64
2023/04/24 02:51:21;;;;;;;1.57;0.60;;;11.60;91.60;;;;;;4991866;28;20443;-65
2023/04/24 02:53:48;;;;;;;2.90;1.13;;;11.50;92.40;;;;;;4990928;28;20443;-65
2023/04/24 02:56:14;;;;;;;1.50;0.90;;;11.30;92.80;;;;;;4992125;28;20445;-64
2023/04/24 02:58:42;;;;;;;0.90;0.73;;;11.20;93.10;;;;;;4992032;28;20487;-64
2023/04/24 03:01:09;;;;;;;0.87;0.73;;;11.10;94.00;;;;;;5010821;28;20978;-65
2023/04/24 03:03:36;;;;;;;3.30;1.10;;;11.10;94.20;;;;;;5009997;28;20472;-64
2023/04/24 03:06:05;;;;;;;1.80;0.70;;;11.00;94.70;;;;;;5011772;28;20458;-64
2023/04/24 03:08:32;;;;;;;1.07;0.97;;;10.90;95.20;;;;;;5011256;28;20495;-64
2023/04/24 03:10:59;;;;;;;1.67;1.10;;;10.80;95.70;;;;;;5012602;28;20456;-65
2023/04/24 03:13:26;;;;;;;1.23;0.90;;;10.80;96.10;;;;;;5009798;28;20515;-64
2023/04/24 03:15:52;;;;;;;2.13;1.13;;;10.80;96.20;;;;;;5009683;28;20453;-65
2023/04/24 03:18:19;;;;;;;2.10;1.17;;;10.70;96.30;;;;;;4991524;28;20491;-65
2023/04/24 03:20:47;;;;;;;2.10;1.03;;;10.60;96.50;;;;;;4991473;28;20464;-65
2023/04/24 03:23:15;;;;;;;1.00;0.77;;;10.50;96.50;;;;;;4990278;28;20486;-65
2023/04/24 03:25:42;;;;;;;1.60;0.87;;;10.60;96.00;;;;;;4990860;28;20812;-65
2023/04/24 03:28:09;;;;;;;2.43;1.17;;;10.60;96.00;;;;;;4991224;28;20450;-65
2023/04/24 03:30:36;;;;;;;0.87;0.70;;;10.60;96.20;;;;;;4991446;28;20482;-64
2023/04/24 03:33:03;;;;;;;1.73;1.00;;;10.50;96.40;;;;;;4993938;28;20479;-64
2023/04/24 03:35:30;;;;;;;1.47;0.90;;;10.50;96.30;;;;;;5010630;28;20478;-64
2023/04/24 03:37:56;;;;;;;4.70;1.10;;;10.50;96.20;;;;;;5010244;28;20460;-64
2023/04/24 03:40:24;;;;;;;2.30;1.30;;;10.40;96.50;;;;;;5010665;28;20485;-64
2023/04/24 03:42:51;;;;;;;2.43;1.03;;;10.30;96.60;;;;;;5009847;28;20467;-64
2023/04/24 03:45:18;;;;;;;1.43;1.20;;;10.30;96.60;;;;;;5010522;28;20947;-65
2023/04/24 03:47:45;;;;;;;1.53;0.87;;;10.30;96.60;;;;;;5014718;28;20457;-66
2023/04/24 03:50:12;;;;;;;2.30;1.13;;;10.20;96.70;;;;;;5012802;28;20448;-65
2023/04/24 03:52:38;;;;;;;2.13;1.30;;;10.10;97.00;;;;;;5013277;28;20473;-63
2023/04/24 03:55:06;;;;;;;1.10;0.93;;;10.10;97.00;;;;;;5014434;28;20457;-64
2023/04/24 03:57:34;;;;;;;2.13;1.10;;;10.10;96.80;;;;;;4995454;28;20452;-64
2023/04/24 04:00:01;;;;;;;1.90;0.70;;;10.10;96.90;;;;;;4994788;28;20492;-64
2023/04/24 04:02:28;;;;;;;1.23;1.00;;;10.10;96.80;;;;;;4993051;28;20580;-64
2023/04/24 04:04:55;;;;;;;1.57;1.47;;;10.00;96.80;;;;;;4994237;28;20462;-64
2023/04/24 04:07:21;;;;;;;0.90;0.73;;;10.10;96.80;;;;;;4995047;28;21041;-65
2023/04/24 04:09:48;;;;;;;2.80;1.30;;;10.00;97.00;;;;;;4993986;28;20461;-65
2023/04/24 04:12:15;;;;;;;3.23;1.00;;;10.00;97.60;;;;;;4993418;28;20975;-64
2023/04/24 04:14:43;;;;;;;3.63;1.20;;;10.00;97.30;;;;;;4993429;28;20454;-64
2023/04/24 04:17:10;;;;;;;3.70;1.30;;;10.10;97.50;;;;;;4993893;28;20449;-63
2023/04/24 04:19:37;;;;;;;1.60;1.10;;;10.20;97.30;;;;;;4993878;28;20485;-64
2023/04/24 04:22:03;;;;;;;1.33;0.93;;;10.30;97.00;;;;;;5005175;28;20593;-64
2023/04/24 04:24:30;;;;;;;2.60;1.17;;;10.50;96.80;;;;;;5012919;28;20453;-65
2023/04/24 04:26:58;;;;;;;1.20;1.00;;;10.60;96.50;;;;;;5013720;28;20459;-64
2023/04/24 04:29:25;;;;;;;3.57;1.00;;;10.60;96.90;;;;;;5014115;28;20452;-64
2023/04/24 04:31:54;;;;;;;2.17;0.93;;;10.60;96.10;;;;;;5014155;28;20880;-63
2023/04/24 04:34:22;;;;;;;1.67;1.10;;;10.40;96.70;;;;;;5013974;28;20449;-64
2023/04/24 04:36:50;;;;;;;0.90;0.80;;;10.30;96.70;;;;;;5014417;28;21180;-65
2023/04/24 04:39:18;;;;;;;1.47;1.30;;;10.10;96.90;;;;;;4997745;28;20479;-66
2023/04/24 04:41:46;;;;;;;1.50;0.83;;;10.00;97.20;;;;;;4995731;28;20883;-69
2023/04/24 04:44:13;;;;;;;1.03;0.87;;;10.00;97.10;;;;;;4994029;28;20485;-64
2023/04/24 04:46:41;;;;;;;1.30;1.20;;;10.00;97.60;;;;;;4995699;28;20539;-64
2023/04/24 04:49:10;;;;;;;1.00;0.80;;;10.00;97.40;;;;;;4995215;28;20460;-64
2023/04/24 04:51:37;;;;;;;1.93;1.57;;;10.00;97.10;;;;;;4996245;28;20453;-64
2023/04/24 04:54:04;;;;;;;2.40;1.40;;;10.00;97.20;;;;;;4995475;28;20453;-65
2023/04/24 04:56:31;;;;;;;2.10;1.00;;;10.00;96.40;;;;;;4995513;28;20457;-63
2023/04/24 04:58:59;;;;;;;2.93;1.30;;;10.00;96.10;;;;;;4993954;28;20494;-64
2023/04/24 05:01:27;;;;;;;3.63;1.43;;;9.90;96.30;;;;;;4996214;28;20499;-65
2023/04/24 05:03:54;;;;;;;1.70;1.17;;;9.80;97.00;;;;;;4994867;28;20494;-64
2023/04/24 05:06:22;;;;;;;1.73;1.57;;;9.80;96.70;;;;;;4995984;28;20443;-65
2023/04/24 05:08:49;;;;;;;1.37;1.23;;;9.80;96.40;;;;;;4995793;28;20455;-65
2023/04/24 05:11:16;;;;;;;4.20;1.93;;;9.80;95.80;;;;;;4998101;28;20456;-64
2023/04/24 05:13:43;;;;;;;1.67;1.30;;;9.80;95.60;;;;;;4993137;28;20950;-65
2023/04/24 05:16:09;;;;;;;1.90;1.40;;;9.80;95.00;;;;;;4993732;28;20449;-67
2023/04/24 05:18:36;;;;;;;1.67;1.33;;;9.80;95.20;;;;;;4992120;28;20442;-68
2023/04/24 05:21:03;;;;;;;2.97;1.30;;;9.70;94.40;;;;;;4992353;28;20474;-68
2023/04/24 05:23:31;;;;;;;1.20;1.10;;;9.70;94.90;;;;;;4991415;28;20454;-67
2023/04/24 05:25:58;;;;;;;1.23;1.13;;;9.70;95.40;;;;;;4992236;28;20448;-68
2023/04/24 05:28:28;;;;;;;2.60;1.00;;;9.70;95.30;;;;;;4999730;28;20451;-67
2023/04/24 05:30:55;;;;;;;2.90;1.80;;;9.70;94.80;;;;;;5011612;28;20506;-67
2023/04/24 05:33:21;;;;;;;2.20;1.10;;;9.70;95.60;;;;;;5010424;28;20813;-67
2023/04/24 05:35:48;;;;;;;2.80;1.97;;;9.80;95.00;;;;;;5011486;28;20970;-68
2023/04/24 05:38:17;;;;;;;2.67;1.50;;;9.80;94.80;;;;;;5011884;28;20446;-68
2023/04/24 05:40:45;;;;;;;2.80;1.60;;;9.80;95.00;;;;;;5011165;28;20582;-69
2023/04/24 05:43:13;;;;;;;1.43;1.33;;;9.90;94.30;;;;;;5010792;28;20477;-68
2023/04/24 05:45:39;;;;;;;1.30;1.20;;;9.90;94.10;;;;;;5001106;28;20488;-68
2023/04/24 05:48:06;;;;;;;1.33;1.23;;;9.90;94.10;;;;;;4992444;28;20838;-70
2023/04/24 05:50:33;;;;;;;2.40;1.47;;;9.90;94.80;;;;;;4992182;28;20451;-68
2023/04/24 05:53:01;;;;;;;1.83;1.50;;;9.90;94.80;;;;;;4990906;28;20467;-69
2023/04/24 05:55:28;;;;;;;2.03;1.43;;;9.90;95.00;;;;;;4993038;28;20478;-68
2023/04/24 05:57:56;;;;;;;2.03;1.50;;;9.90;94.80;;;;;;4993188;28;20458;-69
2023/04/24 06:00:24;;;;;;;1.60;1.50;;;9.90;95.10;;;;;;4991864;28;20491;-69
2023/04/24 06:02:51;;;;;;;2.00;1.80;;;10.00;95.10;;;;;;4990393;28;20500;-69
2023/04/24 06:05:18;;;;;;;2.00;1.23;;;10.00;93.90;;;;;;4991486;28;20454;-69
2023/04/24 06:07:45;;;;;;;2.73;1.63;;;10.10;94.50;;;;;;4991442;28;20449;-69
2023/04/24 06:10:12;;;;;;;2.00;1.30;;;10.20;94.00;;;;;;4992657;28;20447;-70
2023/04/24 06:12:39;;;;;;;1.53;1.43;;;10.20;94.20;;;;;;4996469;28;20858;-69
2023/04/24 06:15:08;;;;;;;3.60;1.33;;;10.20;94.00;;;;;;5010382;28;20517;-70
2023/04/24 06:17:35;;;;;;;1.70;1.60;;;10.10;93.40;;;;;;5009122;28;20460;-69
2023/04/24 06:20:04;;;;;;;1.77;1.67;;;10.00;93.70;;;;;;5010557;28;20490;-69
2023/04/24 06:22:31;;;;;;;1.83;1.23;;;10.00;93.50;;;;;;5009679;28;20487;-68
2023/04/24 06:24:58;;;;;;;1.70;1.30;;;9.90;93.90;;;;;;5009961;28;20453;-68
2023/04/24 06:27:24;;;;;;;2.63;1.10;;;9.90;94.20;;;;;;5000091;28;20449;-69
2023/04/24 06:29:54;;;;;;;1.40;1.30;;;10.00;93.40;;;;;;4991027;28;20446;-69
2023/04/24 06:32:22;;;;;;;1.73;1.63;;;10.30;93.00;;;;;;4990334;28;20483;-69
2023/04/24 06:34:49;;;;;;;2.20;1.83;;;10.60;91.70;;;;;;4990865;28;20449;-69
2023/04/24 06:37:17;;;;;;;1.23;1.13;;;10.70;92.00;;;;;;4990964;28;20497;-69
2023/04/24 06:39:43;;;;;;;1.70;1.60;;;10.90;92.30;;;;;;4990876;28;20485;-70
2023/04/24 06:42:11;;;;;;;1.70;1.37;;;11.10;91.40;;;;;;4990636;28;20485;-69
2023/04/24 06:44:40;;;;;;;1.80;1.20;;;11.40;92.10;;;;;;4991167;28;20849;-69
2023/04/24 06:47:08;;;;;;;1.50;1.30;;;11.80;89.30;;;;;;4991178;28;20866;-69
2023/04/24 06:49:36;;;;;;;2.23;1.53;;;12.00;85.30;;;;;;4990887;28;20446;-70
2023/04/24 06:52:03;;;;;;;1.50;1.40;;;12.10;84.40;;;;;;4990655;28;21024;-69
2023/04/24 06:54:30;;;;;;;1.77;1.67;;;12.20;81.80;;;;;;4989988;28;20462;-71
2023/04/24 06:56:57;;;;;;;2.20;1.73;;;12.20;79.90;;;;;;4990779;28;20456;-69
2023/04/24 06:59:24;;;;;;;1.80;1.70;;;12.20;79.20;;;;;;4990601;28;20462;-70
2023/04/24 07:01:51;;;;;;;1.70;1.60;;;12.20;81.10;;;;;;5008519;28;20522;-70
2023/04/24 07:04:18;;;;;;;1.77;1.67;;;12.20;77.60;;;;;;5008800;28;20455;-69
2023/04/24 07:06:47;;;;;;;2.63;1.40;;;12.10;79.30;;;;;;5009916;28;20968;-70
2023/04/24 07:09:15;;;;;;;2.13;1.70;;;12.20;80.70;;;;;;5010140;28;20453;-69
2023/04/24 07:11:42;;;;;;;2.60;1.70;;;12.40;79.10;;;;;;5009787;28;20489;-68
2023/04/24 07:14:09;;;;;;;2.30;1.30;;;12.60;78.00;;;;;;5008857;28;20464;-69
2023/04/24 07:16:36;;;;;;;2.87;1.80;;;12.70;77.00;;;;;;5004608;28;20453;-69
2023/04/24 07:19:03;;;;;;;2.27;2.07;;;12.50;73.00;;;;;;4990794;28;20461;-68
2023/04/24 07:21:31;;;;;;;1.83;1.73;;;12.40;74.10;;;;;;4991918;28;20478;-69
2023/04/24 07:24:00;;;;;;;2.40;2.17;;;12.30;73.70;;;;;;5007410;28;20538;-71
2023/04/24 07:26:27;;;;;;;2.37;1.90;;;12.30;74.60;;;;;;5033788;28;20537;-70
2023/04/24 07:28:54;;;;;;;2.50;1.60;;;12.30;75.50;;;;;;5033600;28;20942;-70
2023/04/24 07:31:21;;;;;;;2.93;2.13;;;12.20;73.10;;;;;;5033718;28;20473;-70
2023/04/24 07:33:49;;;;;;;1.93;1.83;;;12.00;74.10;;;;;;5011084;28;20451;-70
2023/04/24 07:36:18;;;;;;;1.50;1.40;;;12.00;72.60;;;;;;4994570;28;20541;-70
2023/04/24 07:38:45;;;;;;;1.53;1.43;;;12.10;70.00;;;;;;4994160;28;20454;-70
2023/04/24 07:41:14;;;;;;;2.07;1.63;;;12.20;71.80;;;;;;4994252;28;20490;-71
2023/04/24 07:43:41;;;;;;;2.17;1.97;;;12.30;68.10;;;;;;4993025;28;20483;-69
2023/04/24 07:46:08;;;;;;;1.70;1.60;;;12.50;66.60;;;;;;4994617;28;20465;-70
2023/04/24 07:48:35;;;;;;;1.90;1.60;;;12.80;66.10;;;;;;4994591;28;20972;-70
2023/04/24 07:51:02;;;;;;;1.67;1.57;;;13.20;64.40;;;;;;4994988;28;20468;-70
2023/04/24 07:53:29;;;;;;;2.00;1.30;;;13.50;65.10;;;;;;4991695;28;20481;-69
2023/04/24 07:55:56;;;;;;;1.97;1.40;;;13.40;59.90;;;;;;4997400;28;20508;-69
2023/04/24 07:58:25;;;;;;;1.80;1.60;;;13.00;59.20;;;;;;5011731;28;20455;-69
2023/04/24 08:00:51;;;;;;;2.45;1.42;;;12.80;60.80;;;;;;5012891;28;20473;-69
2023/04/24 08:03:19;;;;;;;1.80;1.60;;;12.70;61.20;;;;;;5011907;28;20588;-69
2023/04/24 08:05:46;;;;;;;2.03;1.30;;;13.00;63.50;;;;;;5013630;28;20453;-69
2023/04/24 08:08:13;;;;;;;1.10;1.00;;;13.30;58.50;;;;;;5013442;28;20465;-69
2023/04/24 08:10:40;;;;;;;2.87;1.63;;;13.10;57.30;;;;;;5003959;28;20462;-69
2023/04/24 08:13:07;;;;;;;1.37;1.20;;;12.90;57.60;;;;;;4992371;28;20474;-70
2023/04/24 08:15:35;;;;;;;3.03;1.47;;;12.90;57.80;;;;;;4993730;28;20465;-69
2023/04/24 08:18:05;;;;;;;1.40;1.30;;;13.00;57.40;;;;;;4994021;28;20456;-70
2023/04/24 08:20:32;;;;;;;1.60;1.47;;;13.30;61.30;;;;;;4993344;28;20505;-70
2023/04/24 08:22:59;;;;;;;4.07;1.87;;;13.60;59.70;;;;;;4992475;28;20464;-70
2023/04/24 08:25:26;;;;;;;1.47;1.37;;;13.30;59.30;;;;;;4993525;28;20462;-72
2023/04/24 08:27:52;;;;;;;3.47;1.47;;;13.10;60.00;;;;;;4994509;28;20458;-69
2023/04/24 08:30:20;;;;;;;2.87;1.40;;;12.90;59.60;;;;;;4993369;28;20456;-69
2023/04/24 08:32:48;;;;;;;1.47;1.27;;;12.70;60.80;;;;;;4990655;28;20478;-69
2023/04/24 08:35:15;;;;;;;3.73;1.70;;;12.50;61.20;;;;;;4993085;28;20473;-71
2023/04/24 08:37:42;;;;;;;2.10;1.67;;;12.40;63.20;;;;;;4990123;28;20451;-71
2023/04/24 08:40:14;;;;;;;2.50;1.33;;;12.50;60.10;;;;;;4991123;28;21012;-71
2023/04/24 08:42:43;;;;;;;2.00;1.53;;;12.40;59.50;;;;;;5000901;28;20469;-71
2023/04/24 08:45:11;;;;;;;2.10;1.90;;;12.40;59.10;;;;;;5001363;28;20446;-70
2023/04/24 08:47:39;;;;;;;3.30;1.40;;;12.40;58.80;;;;;;5002293;28;20438;-71
2023/04/24 08:50:09;;;;;;;2.00;1.80;;;12.50;60.10;;;;;;5000791;28;20445;-70
2023/04/24 08:52:36;;;;;;;1.50;1.40;;;12.60;59.00;;;;;;4999438;28;20537;-71
2023/04/24 08:55:04;;;;;;;2.10;1.90;;;12.30;57.30;;;;;;5000597;28;20453;-71
2023/04/24 08:57:31;;;;;;;5.97;2.00;;;12.10;57.70;;;;;;5000916;28;20823;-71
2023/04/24 08:59:59;;;;;;;1.73;1.63;;;12.20;57.50;;;;;;5001314;28;20473;-70
2023/04/24 09:02:27;;;;;;;2.90;1.50;;;12.40;56.90;;;;;;5000049;28;20466;-70
2023/04/24 09:04:56;;;;;;;2.60;1.40;;;12.60;57.00;;;;;;5003085;28;20455;-71
2023/04/24 09:07:26;;;;;;;1.43;1.30;;;12.60;57.60;;;;;;5000189;28;21004;-70
2023/04/24 09:09:53;;;;;;;3.40;1.20;;;12.70;56.90;;;;;;4999996;28;20454;-71
2023/04/24 09:12:21;;;;;;;3.17;1.40;;;12.70;56.30;;;;;;5000973;28;20472;-71
2023/04/24 09:14:50;;;;;;;3.13;1.50;;;12.60;56.20;;;;;;5000262;28;20457;-70
2023/04/24 09:17:16;;;;;;;2.70;1.47;;;12.70;56.00;;;;;;5000486;28;20465;-71
2023/04/24 09:19:43;;;;;;;2.10;1.90;;;12.60;56.90;;;;;;5000123;28;20458;-71
2023/04/24 09:22:13;;;;;;;1.40;1.30;;;12.50;56.30;;;;;;5002108;28;21025;-72
2023/04/24 09:24:41;;;;;;;1.63;1.10;;;12.40;57.50;;;;;;5010968;28;20449;-72
2023/04/24 09:27:12;;;;;;;1.27;1.17;;;12.40;56.50;;;;;;5011923;28;20472;-70
2023/04/24 09:29:38;;;;;;;1.40;1.30;;;12.10;58.80;;;;;;5010634;28;20457;-70
2023/04/24 09:32:21;;;;;;;3.27;1.20;;;11.70;68.70;;;;;;5011437;28;20479;-70
2023/04/24 09:34:48;;;;;;;1.37;1.20;;;11.10;66.30;;;;;;5011048;28;20468;-71
2023/04/24 09:37:29;;;;;;;1.20;1.10;;;11.10;67.10;;;;;;5011442;28;20483;-70
2023/04/24 09:40:13;;;;;;;2.10;1.40;;;11.40;65.30;;;;;;5011278;28;20481;-72
2023/04/24 09:42:40;;;;;;;1.80;1.20;;;11.80;61.70;;;;;;5010140;28;20457;-70
2023/04/24 09:45:11;;;;;;;2.13;1.50;;;12.40;60.20;;;;;;4996584;28;21108;-70
2023/04/24 09:47:39;;;;;;;1.90;1.27;;;12.60;58.30;;;;;;4991459;28;20973;-71
2023/04/24 09:50:14;;;;;;;1.63;1.53;;;12.80;57.30;;;;;;4991798;28;20454;-71
2023/04/24 09:52:43;;;;;;;1.93;1.40;;;13.40;58.80;;;;;;4997148;28;21020;-71
2023/04/24 09:55:18;;;;;;;2.47;1.20;;;14.10;56.20;;;;;;5000288;28;20441;-70
2023/04/24 09:57:50;;;;;;;1.40;1.20;;;14.90;53.30;;;;;;5001076;28;20453;-71
2023/04/24 10:00:20;;;;;;;1.93;1.20;;;15.40;53.70;;;;;;5000993;28;20493;-71
2023/04/24 10:02:51;;;;;;;1.70;1.00;;;14.40;51.50;;;;;;4998900;28;20475;-71
2023/04/24 10:05:18;;;;;;;2.57;1.00;;;13.40;53.50;;;;;;4999035;28;20905;-71
2023/04/24 10:07:46;;;;;;;1.03;0.93;;;13.50;54.00;;;;;;5000827;28;20475;-70
2023/04/24 10:10:13;;;;;;;1.90;1.57;;;13.60;54.30;;;;;;4997756;28;20505;-71
2023/04/24 10:12:41;;;;;;;4.00;1.23;;;13.90;53.10;;;;;;4999678;28;20460;-71
2023/04/24 10:15:12;;;;;;;5.80;1.77;;;13.90;52.50;;;;;;4999319;28;20434;-71
2023/04/24 10:17:39;;;;;;;2.77;1.30;;;13.80;51.70;;;;;;4998572;28;21017;-70
2023/04/24 10:20:08;;;;;;;1.40;1.20;;;13.60;54.90;;;;;;5000352;28;20451;-71
2023/04/24 10:22:35;;;;;;;1.73;1.33;;;14.20;53.20;;;;;;4999298;28;21393;-71
2023/04/24 10:25:06;;;;;;;1.40;1.30;;;14.60;50.30;;;;;;4997490;28;20461;-71
2023/04/24 10:27:34;;;;;;;1.10;1.00;;;14.90;50.20;;;;;;4999576;28;20455;-71
2023/04/24 10:30:03;;;;;;;2.20;1.10;;;14.80;50.00;;;;;;5000463;28;20449;-70
2023/04/24 10:32:31;;;;;;;1.37;1.13;;;13.80;49.40;;;;;;4998121;28;20519;-70
2023/04/24 10:34:58;;;;;;;2.77;1.40;;;13.30;51.10;;;;;;4998797;28;20444;-70
2023/04/24 10:37:27;;;;;;;2.03;1.30;;;12.80;51.20;;;;;;5000897;28;20445;-71
2023/04/24 10:39:54;;;;;;;1.83;1.30;;;12.60;52.30;;;;;;4999478;28;20463;-71
2023/04/24 10:42:21;;;;;;;1.33;1.23;;;12.50;52.90;;;;;;4997136;28;20493;-70
2023/04/24 10:44:49;;;;;;;1.97;1.43;;;12.30;52.70;;;;;;4999944;28;20490;-70
2023/04/24 10:47:17;;;;;;;1.53;1.43;;;12.20;53.40;;;;;;4999821;28;20906;-72
2023/04/24 10:49:44;;;;;;;2.70;1.70;;;12.00;53.10;;;;;;4990967;28;20541;-71
2023/04/24 10:52:11;;;;;;;2.43;1.30;;;12.10;54.10;;;;;;4990705;28;20461;-71
2023/04/24 10:54:44;;;;;;;2.33;1.30;;;12.20;53.90;;;;;;4990371;28;20494;-70
2023/04/24 10:57:30;;;;;;;3.43;1.37;;;12.30;53.90;;;;;;4994151;28;20461;-70
2023/04/24 11:00:21;;;;;;;1.80;1.67;;;12.50;52.90;;;;;;4991004;28;20444;-70
2023/04/24 11:02:52;;;;;;;1.83;1.30;;;12.70;52.80;;;;;;4989567;28;20504;-70
2023/04/24 11:05:21;;;;;;;3.30;1.60;;;12.80;53.20;;;;;;4998085;28;20454;-69
2023/04/24 11:08:28;;;;;;;1.97;1.40;;;12.80;52.60;;;;;;5000054;28;20925;-70
2023/04/24 11:11:03;;;;;;;5.07;1.10;;;13.00;53.20;;;;;;4959884;28;20441;-71
2023/04/24 11:14:08;;;;;;;1.00;1.00;;;13.10;52.90;;;;;;4962836;28;20468;-71
2023/04/24 11:16:38;;;;;;;1.50;1.40;;;13.20;53.30;;;;;;4999090;28;20796;-70
2023/04/24 11:19:07;;;;;;;1.80;1.50;;;13.50;51.20;;;;;;5009418;28;20456;-69
2023/04/24 11:21:42;;;;;;;1.50;1.40;;;13.40;51.00;;;;;;5007730;28;20504;-71
2023/04/24 11:24:37;;;;;;;1.90;1.40;;;13.30;51.40;;;;;;5004988;28;20508;-70
2023/04/24 11:27:13;;;;;;;1.30;1.10;;;13.50;53.10;;;;;;5004855;28;20506;-71
2023/04/24 11:29:43;;;;;;;1.33;1.23;;;13.50;51.70;;;;;;5009073;28;20471;-70
2023/04/24 11:32:19;;;;;;;3.23;1.37;;;13.60;50.90;;;;;;5008486;28;20454;-70
2023/04/24 11:34:48;;;;;;;1.67;1.57;;;13.80;51.10;;;;;;5010757;28;20446;-71
2023/04/24 11:37:16;;;;;;;1.87;1.70;;;14.10;50.70;;;;;;5013312;28;20457;-72
2023/04/24 11:39:42;;;;;;;1.83;1.60;;;14.10;49.00;;;;;;5019018;28;20457;-71
2023/04/24 11:42:10;;;;;;;4.00;1.80;;;14.00;49.40;;;;;;5019975;28;20489;-71
2023/04/24 11:44:38;;;;;;;1.80;1.60;;;13.90;50.30;;;;;;5015197;28;20510;-71
2023/04/24 11:47:06;;;;;;;2.93;1.40;;;14.00;50.70;;;;;;5013281;28;20449;-71
2023/04/24 11:49:33;;;;;;;2.23;1.30;;;14.00;50.40;;;;;;5003213;28;20817;-71
2023/04/24 11:52:02;;;;;;;1.50;1.40;;;13.50;52.00;;;;;;5000159;28;20461;-71
2023/04/24 11:54:29;;;;;;;1.37;1.07;;;13.20;52.80;;;;;;4999066;28;20574;-71
2023/04/24 11:56:57;;;;;;;2.20;1.10;;;12.80;53.30;;;;;;4997727;28;20497;-70
2023/04/24 11:59:24;;;;;;;1.60;1.20;;;12.60;53.70;;;;;;4998977;28;20434;-71
2023/04/24 12:01:51;;;;;;;2.67;1.10;;;12.60;55.10;;;;;;4999449;28;20493;-71
2023/04/24 12:04:18;;;;;;;1.40;1.30;;;13.00;54.80;;;;;;4999096;28;20449;-70
2023/04/24 12:07:02;;;;;;;1.37;1.27;;;13.50;54.00;;;;;;4999682;28;20671;-70
2023/04/24 12:09:29;;;;;;;2.27;1.20;;;13.60;51.60;;;;;;5013454;28;20456;-68
2023/04/24 12:11:57;;;;;;;1.43;1.30;;;13.80;53.20;;;;;;4995467;28;20532;-71
2023/04/24 12:14:25;;;;;;;1.63;1.53;;;13.70;50.60;;;;;;4993223;28;20943;-69
2023/04/24 12:16:52;;;;;;;2.97;1.67;;;13.60;50.70;;;;;;4994000;28;20538;-70
2023/04/24 12:19:21;;;;;;;2.53;1.60;;;13.40;51.80;;;;;;5005678;28;20450;-70
2023/04/24 12:22:02;;;;;;;1.50;1.37;;;13.20;52.70;;;;;;5002285;28;20487;-70
2023/04/24 12:24:30;;;;;;;1.43;1.33;;;12.80;52.90;;;;;;5002027;28;20473;-70
2023/04/24 12:26:57;;;;;;;1.53;1.40;;;12.60;54.70;;;;;;5002879;28;20873;-70
2023/04/24 12:29:24;;;;;;;4.53;2.20;;;12.50;58.20;;;;;;5003217;28;20448;-70
2023/04/24 12:31:51;;;;;;;1.47;1.20;;;12.20;58.80;;;;;;5002560;28;20473;-70
2023/04/24 12:34:20;;;;;;;1.87;1.50;;;12.20;58.30;;;;;;5000535;28;20443;-70
2023/04/24 12:36:47;;;;;;;2.00;1.20;;;12.50;58.00;;;;;;5003818;28;21031;-71
2023/04/24 12:39:19;;;;;;;1.43;1.23;;;12.80;55.50;;;;;;5002682;28;20454;-70
2023/04/24 12:41:57;;;;;;;1.97;1.40;;;12.70;55.00;;;;;;5002998;28;20487;-70
2023/04/24 12:44:31;;;;;;;1.70;1.13;;;12.60;55.50;;;;;;4998481;28;20449;-71
2023/04/24 12:46:57;;;;;;;2.70;1.83;;;12.40;54.90;;;;;;5004667;28;20443;-70
2023/04/24 12:49:24;;;;;;;2.20;1.40;;;12.50;56.20;;;;;;4998583;28;20452;-70
2023/04/24 12:51:51;;;;;;;2.70;1.60;;;12.70;54.60;;;;;;4993938;28;20479;-69
2023/04/24 12:54:21;;;;;;;2.03;1.93;;;12.90;54.70;;;;;;4991998;28;20451;-68